Thunder radar more information blitzortung!


Radar de pluja more information rain snow radar


Visita la nostra xarxa de llocs de meteo:

Template documentation
and downloads

And another site



No particular awareness of the weather is required.    There are no Weather-warnings

Pagina Historial Weather Underground text

Diari Resum Juny 15, 2017 Unitats:  Imperial    Mètric   Tant
« Previous Dia
SegĂźent Dia »
Diari Setmana Mensual Anual Personalitzada
  Maxima: Minima: Media:
Temperatura: 99.5 °F 67.3 °F 87.3 °F
Punt de rosada: 56.1 °F 39.7 °F 46.6 °F
Humitat: 50 % 15 % 26 %
Wind Speed: 12.1 mph 0 mph 4.1 mph
RĂ fegues de vent: 12.1 mph - -
Vent:- - South
Pression baro: 30 in 29.9 in -
Precipitacions: 0 in    
Historical Graphs
 
 
Dades de taula per Juny 15, 2017
Temps Temperatura Punt de rosada Pression baro Vent Wind Speed RĂ fegues de vent Humitat Rainfall Rate (Hourly)
00:04 76.8 °F 43 °F 29.9 in Calm     30 % 0 in
00:05 68 °F 45.9 °F 29.9 in Calm   2 mph 45 % 0 in
00:15 68.2 °F 46.6 °F 29.9 in Calm     46 % 0 in
00:25 68.2 °F 47.1 °F 29.9 in Calm     47 % 0 in
00:35 68.2 °F 47.1 °F 29.9 in Calm     47 % 0 in
00:45 68.5 °F 47.5 °F 29.9 in WNW 1 mph   47 % 0 in
00:55 68.7 °F 47.7 °F 29.9 in NW 1 mph 1 mph 47 % 0 in
01:05 68.4 °F 47.8 °F 29.9 in North 1 mph 2 mph 48 % 0 in
01:15 67.8 °F 48 °F 29.9 in Calm     49 % 0 in
01:25 67.5 °F 47.7 °F 29.9 in Calm     49 % 0 in
01:35 67.5 °F 47.7 °F 29.9 in Calm     49 % 0 in
01:45 67.3 °F 47.5 °F 29.9 in Calm     49 % 0 in
01:55 67.5 °F 47.7 °F 29.9 in WNW 1 mph 1 mph 49 % 0 in
02:05 67.8 °F 48.6 °F 29.9 in Calm   2 mph 50 % 0 in
02:15 68 °F 48.7 °F 29.9 in Calm   1 mph 50 % 0 in
02:25 68.5 °F 49.3 °F 29.9 in Calm   2 mph 50 % 0 in
02:35 68.7 °F 49.3 °F 29.9 in NE 1 mph 3 mph 50 % 0 in
02:45 68.9 °F 48.9 °F 29.9 in NE 2 mph 2 mph 49 % 0 in
02:55 69.1 °F 49.1 °F 29.9 in SW 1 mph 2 mph 49 % 0 in
03:05 69.6 °F 49.6 °F 29.9 in SW 1 mph 2 mph 49 % 0 in
03:15 70.7 °F 50 °F 29.9 in Calm   2 mph 48 % 0 in
03:25 71.4 °F 50.2 °F 29.9 in SW 2 mph 2 mph 47 % 0 in
03:35 72.5 °F 51.1 °F 29.9 in SW 1 mph 1 mph 47 % 0 in
03:45 73.4 °F 51.4 °F 29.9 in SW 1 mph 2 mph 46 % 0 in
03:55 74.3 °F 52.2 °F 29.9 in WSW 1 mph 2 mph 46 % 0 in
04:05 75.2 °F 52.3 °F 30 in SW 1 mph 2 mph 45 % 0 in
04:15 76.6 °F 53.1 °F 30 in SW 1 mph 2 mph 44 % 0 in
04:25 78.1 °F 53.8 °F 30 in WSW 1 mph 2 mph 43 % 0 in
04:35 80.6 °F 54.7 °F 30 in NNW 1 mph 2 mph 41 % 0 in
04:45 80.8 °F 54.9 °F 30 in WSW 1 mph 1 mph 41 % 0 in
04:55 81.7 °F 55 °F 30 in South 1 mph 2 mph 40 % 0 in
05:05 82.8 °F 55.2 °F 30 in South 1 mph 2 mph 39 % 0 in
05:15 83.8 °F 56.1 °F 30 in SW 1 mph 2 mph 39 % 0 in
05:25 84.9 °F 55.8 °F 30 in Calm   2 mph 37 % 0 in
05:35 85.3 °F 55.2 °F 29.9 in SSW 1 mph 4 mph 36 % 0 in
05:45 85.5 °F 54 °F 29.9 in SSW 2 mph 3 mph 34 % 0 in
10:46 86.4 °F 54.7 °F 29.9 in SSE 3.5 mph 3.5 mph 34 % 0 in
10:51 86.9 °F 54.3 °F 29.9 in East 3.5 mph 3.5 mph 33 % 0 in
10:56 86.7 °F 53.2 °F 29.9 in SE 4.6 mph 4.6 mph 32 % 0 in
11:01 86.5 °F 54 °F 29.9 in SE 3.8 mph 3.8 mph 33 % 0 in
11:06 86.4 °F 53.1 °F 29.9 in ESE 4.6 mph 4.6 mph 32 % 0 in
11:11 86.5 °F 53.2 °F 29.9 in East 3.5 mph 3.5 mph 32 % 0 in
11:16 87.3 °F 53.8 °F 29.9 in North 1.4 mph 1.4 mph 32 % 0 in
11:21 87.4 °F 54 °F 29.9 in NNE 2.3 mph 2.3 mph 32 % 0 in
11:26 88.2 °F 53.8 °F 29.9 in ENE 2.3 mph 2.3 mph 31 % 0 in
11:31 88.3 °F 53.1 °F 30 in SSE 3.5 mph 3.5 mph 30 % 0 in
11:33 88.7 °F 53.2 °F 30 in ESE 2.6 mph 2.6 mph 30 % 0 in
11:38 89.2 °F 52.9 °F 30 in ENE 3.5 mph 3.5 mph 29 % 0 in
11:43 88.9 °F 52.5 °F 30 in East 3.5 mph 3.5 mph 29 % 0 in
11:48 88.5 °F 52.2 °F 30 in ESE 5.8 mph 5.8 mph 29 % 0 in
11:53 89.2 °F 52.9 °F 30 in ESE 2.9 mph 2.9 mph 29 % 0 in
11:58 90 °F 52.5 °F 30 in NNE 3.5 mph 3.5 mph 28 % 0 in
12:03 90.1 °F 51.6 °F 30 in NNE 4.6 mph 4.6 mph 27 % 0 in
12:08 91 °F 52.3 °F 30 in SE 2.4 mph 2.4 mph 27 % 0 in
12:13 90.9 °F 51.3 °F 30 in SE 4.7 mph 4.7 mph 26 % 0 in
12:18 91.2 °F 51.4 °F 29.9 in East 2.3 mph 2.3 mph 26 % 0 in
12:23 92.1 °F 50.2 °F 29.9 in South 4.6 mph 4.6 mph 24 % 0 in
12:28 91 °F 50.4 °F 29.9 in NNE 5.8 mph 5.8 mph 25 % 0 in
12:33 91.8 °F 49.8 °F 29.9 in ENE 4.6 mph 4.6 mph 24 % 0 in
12:38 91.8 °F 49.8 °F 29.9 in ENE 2.3 mph 2.3 mph 24 % 0 in
12:43 92.5 °F 50.4 °F 29.9 in West 5.8 mph 5.8 mph 24 % 0 in
12:48 92.3 °F 48 °F 29.9 in East 8.1 mph 8.1 mph 22 % 0 in
12:53 92.8 °F 48.4 °F 29.9 in East 5.8 mph 5.8 mph 22 % 0 in
12:58 93 °F 48.6 °F 29.9 in ENE 4.7 mph 4.7 mph 22 % 0 in
13:03 92.8 °F 48.4 °F 29.9 in ESE 6.9 mph 6.9 mph 22 % 0 in
13:08 92.8 °F 48.4 °F 29.9 in ENE 5.8 mph 5.8 mph 22 % 0 in
13:13 92.8 °F 47.1 °F 29.9 in ESE 5.8 mph 5.8 mph 21 % 0 in
13:18 92.7 °F 46.9 °F 29.9 in ENE 5.8 mph 5.8 mph 21 % 0 in
13:23 93.4 °F 47.7 °F 29.9 in ENE 6.7 mph 6.7 mph 21 % 0 in
13:28 93.6 °F 47.8 °F 29.9 in ESE 5.8 mph 5.8 mph 21 % 0 in
13:33 93.2 °F 46.2 °F 29.9 in ESE 8.1 mph 8.1 mph 20 % 0 in
13:38 92.8 °F 45.9 °F 29.9 in ESE 8.1 mph 8.1 mph 20 % 0 in
13:43 93 °F 47.3 °F 29.9 in NNE 9.2 mph 9.2 mph 21 % 0 in
13:48 93.6 °F 47.8 °F 29.9 in ENE 8.1 mph 8.1 mph 21 % 0 in
13:53 93 °F 44.8 °F 29.9 in ESE 10.4 mph 10.4 mph 19 % 0 in
13:58 93.2 °F 46.2 °F 29.9 in NNE 6.9 mph 6.9 mph 20 % 0 in
14:03 93.2 °F 44.8 °F 29.9 in East 8.7 mph 8.7 mph 19 % 0 in
14:08 93.2 °F 44.8 °F 29.9 in ESE 9.7 mph 9.7 mph 19 % 0 in
14:13 93.6 °F 45.1 °F 29.9 in ESE 10.4 mph 10.4 mph 19 % 0 in
14:18 93.9 °F 44.1 °F 29.9 in ESE 11.5 mph 11.5 mph 18 % 0 in
14:23 94.1 °F 45.5 °F 29.9 in ESE 7.6 mph 7.6 mph 19 % 0 in
14:25 94.1 °F 45.5 °F 29.9 in East 8.1 mph 8.1 mph 19 % 0 in
14:30 94.6 °F 44.6 °F 29.9 in ESE 8.1 mph 8.1 mph 18 % 0 in
14:35 94.1 °F 44.1 °F 29.9 in ESE 9.2 mph 9.2 mph 18 % 0 in
14:40 93.6 °F 42.3 °F 29.9 in ENE 8.5 mph 8.5 mph 17 % 0 in
14:45 93.9 °F 44.1 °F 29.9 in ENE 8.1 mph 8.1 mph 18 % 0 in
14:50 94.1 °F 42.6 °F 29.9 in SE 8.1 mph 8.1 mph 17 % 0 in
14:55 94.1 °F 41.2 °F 29.9 in ESE 12.1 mph 12.1 mph 16 % 0 in
15:00 94.1 °F 42.6 °F 29.9 in East 5.8 mph 5.8 mph 17 % 0 in
15:05 93.9 °F 40.8 °F 29.9 in ESE 6.9 mph 6.9 mph 16 % 0 in
15:10 94.5 °F 43 °F 29.9 in NNW 11.5 mph 11.5 mph 17 % 0 in
15:15 94.6 °F 43.2 °F 29.9 in SE 10.4 mph 10.4 mph 17 % 0 in
15:20 95.4 °F 40.5 °F 29.9 in SE 5.8 mph 5.8 mph 15 % 0 in
15:25 94.5 °F 41.4 °F 29.9 in ESE 10.4 mph 10.4 mph 16 % 0 in
15:30 94.5 °F 41.4 °F 29.9 in East 10.7 mph 10.7 mph 16 % 0 in
15:35 94.1 °F 41.2 °F 29.9 in South 10.4 mph 10.4 mph 16 % 0 in
15:40 94.5 °F 39.7 °F 29.9 in ESE 10.4 mph 10.4 mph 15 % 0 in
15:45 97 °F 45 °F 29.9 in WSW 4 mph 4 mph 17 % 0 in
15:50 97.5 °F 45.3 °F 29.9 in WSW 3.5 mph 3.5 mph 17 % 0 in
15:55 98.8 °F 47.8 °F 29.9 in SSW 4.6 mph 4.6 mph 18 % 0 in
16:00 99.1 °F 46.8 °F 29.9 in West 2.9 mph 2.9 mph 17 % 0 in
16:05 98.4 °F 46 °F 29.9 in WNW 5.8 mph 5.8 mph 17 % 0 in
16:10 99 °F 46.6 °F 29.9 in SW 3.5 mph 3.5 mph 17 % 0 in
16:15 98.2 °F 46 °F 29.9 in SW 8.1 mph 8.1 mph 17 % 0 in
16:20 98.1 °F 45.9 °F 29.9 in South 5.8 mph 5.8 mph 17 % 0 in
16:25 98.6 °F 46.2 °F 29.9 in SSE 5.8 mph 5.8 mph 17 % 0 in
16:30 98.1 °F 44.2 °F 29.9 in SE 5.8 mph 5.8 mph 16 % 0 in
16:35 98.8 °F 44.8 °F 29.9 in SSE 3.5 mph 3.5 mph 16 % 0 in
16:40 99.5 °F 45.3 °F 29.9 in South 2.3 mph 2.3 mph 16 % 0 in
16:45 99 °F 45 °F 29.9 in SSW 4.3 mph 4.3 mph 16 % 0 in
16:50 99.1 °F 45.1 °F 29.9 in SW 5.8 mph 5.8 mph 16 % 0 in
16:55 98.4 °F 44.4 °F 29.9 in WSW 7.6 mph 7.6 mph 16 % 0 in
17:00 98.8 °F 44.8 °F 29.9 in SW 5.8 mph 5.8 mph 16 % 0 in
17:05 98.4 °F 44.4 °F 29.9 in SSW 3.6 mph 3.6 mph 16 % 0 in
17:10 98.8 °F 44.8 °F 29.9 in South 4.6 mph 4.6 mph 16 % 0 in
17:15 99.5 °F 45.3 °F 30 in South 4.6 mph 4.6 mph 16 % 0 in
17:20 97.5 °F 42.1 °F 30 in SW 5.8 mph 5.8 mph 15 % 0 in
17:25 97.5 °F 42.1 °F 30 in SSW 3.5 mph 3.5 mph 15 % 0 in
17:30 97 °F 41.7 °F 29.9 in SW 5.6 mph 5.6 mph 15 % 0 in
17:35 96.4 °F 41.2 °F 29.9 in South 2.3 mph 2.3 mph 15 % 0 in
17:40 96.8 °F 41.5 °F 29.9 in SW 5.8 mph 5.8 mph 15 % 0 in
17:45 97 °F 41.7 °F 29.9 in SSE 5.8 mph 5.8 mph 15 % 0 in
17:50 96.4 °F 41.2 °F 29.9 in NNE 4.6 mph 4.6 mph 15 % 0 in
17:55 96.1 °F 41 °F 29.9 in SSE 9.2 mph 9.2 mph 15 % 0 in
18:00 96.4 °F 43 °F 29.9 in West 5.8 mph 5.8 mph 16 % 0 in
18:05 96.4 °F 43 °F 29.9 in South 2.4 mph 2.4 mph 16 % 0 in
18:07 96.6 °F 43.2 °F 29.9 in South 2.9 mph 2.9 mph 16 % 0 in
18:12 95.4 °F 42.1 °F 29.9 in SW 5.8 mph 5.8 mph 16 % 0 in
18:17 94.6 °F 43.2 °F 29.9 in SSW 3.5 mph 3.5 mph 17 % 0 in
18:22 94.3 °F 42.8 °F 29.9 in West 4 mph 4 mph 17 % 0 in
18:27 94.5 °F 43 °F 29.9 in WSW 6.9 mph 6.9 mph 17 % 0 in
18:32 94.1 °F 42.6 °F 29.9 in WSW 5.9 mph 5.9 mph 17 % 0 in
18:37 93.6 °F 42.3 °F 29.9 in SW 5.8 mph 5.8 mph 17 % 0 in
18:42 93.6 °F 42.3 °F 29.9 in WSW 5.8 mph 5.8 mph 17 % 0 in
18:47 93 °F 41.7 °F 29.9 in WSW 5.8 mph 5.8 mph 17 % 0 in
18:52 92.3 °F 41.2 °F 29.9 in West 8.1 mph 8.1 mph 17 % 0 in
18:57 91.9 °F 40.8 °F 29.9 in WSW 6.9 mph 6.9 mph 17 % 0 in
19:02 91.6 °F 40.6 °F 29.9 in West 6.9 mph 6.9 mph 17 % 0 in
19:07 91.2 °F 40.3 °F 29.9 in SW 8.1 mph 8.1 mph 17 % 0 in
19:12 90.7 °F 41.4 °F 29.9 in SW 8.1 mph 8.1 mph 18 % 0 in
19:17 90.5 °F 41.2 °F 29.9 in WSW 6.9 mph 6.9 mph 18 % 0 in
19:22 90.3 °F 41.2 °F 29.9 in West 5.8 mph 5.8 mph 18 % 0 in
19:27 90 °F 40.8 °F 29.9 in West 4.6 mph 4.6 mph 18 % 0 in
19:32 89.8 °F 40.6 °F 29.9 in SW 6.9 mph 6.9 mph 18 % 0 in
19:37 89.8 °F 40.6 °F 29.9 in SW 4.6 mph 4.6 mph 18 % 0 in
19:42 89.6 °F 40.5 °F 29.9 in WSW 5.8 mph 5.8 mph 18 % 0 in
19:47 89.6 °F 41.9 °F 29.9 in SW 5.8 mph 5.8 mph 19 % 0 in
19:52 89.2 °F 43 °F 29.9 in SSW 5.8 mph 5.8 mph 20 % 0 in
19:57 88.9 °F 43.9 °F 29.9 in SW 5.8 mph 5.8 mph 21 % 0 in
20:02 88.5 °F 43.5 °F 29.9 in WSW 4.6 mph 4.6 mph 21 % 0 in
20:07 88.3 °F 44.8 °F 29.9 in SW 3.5 mph 3.5 mph 22 % 0 in
20:12 88 °F 44.4 °F 29.9 in SW 4.9 mph 4.9 mph 22 % 0 in
20:17 87.8 °F 44.2 °F 29.9 in SW 4.7 mph 4.7 mph 22 % 0 in
20:22 87.6 °F 45.1 °F 29.9 in SSW 4.6 mph 4.6 mph 23 % 0 in
20:27 87.1 °F 44.8 °F 29.9 in WSW 6.9 mph 6.9 mph 23 % 0 in
20:32 86.9 °F 44.6 °F 29.9 in WSW 3.5 mph 3.5 mph 23 % 0 in
20:37 86.5 °F 44.2 °F 29.9 in SW 3.6 mph 3.6 mph 23 % 0 in
20:42 86.4 °F 44.2 °F 29.9 in SSW 5.9 mph 5.9 mph 23 % 0 in
20:47 86.2 °F 44.1 °F 30 in West 5.8 mph 5.8 mph 23 % 0 in
20:52 86 °F 45 °F 30 in SW 4.7 mph 4.7 mph 24 % 0 in
20:57 85.6 °F 44.8 °F 30 in SW 3.5 mph 3.5 mph 24 % 0 in
21:02 85.5 °F 45.7 °F 30 in SW 3.6 mph 3.6 mph 25 % 0 in
21:07 85.1 °F 45.3 °F 30 in SW 4.6 mph 4.6 mph 25 % 0 in
21:12 84.7 °F 45 °F 30 in WSW 4.6 mph 4.6 mph 25 % 0 in
21:17 84.6 °F 45 °F 30 in SW 2.3 mph 2.3 mph 25 % 0 in
21:22 84.4 °F 44.8 °F 30 in SW 3.5 mph 3.5 mph 25 % 0 in
21:27 84.2 °F 45.7 °F 30 in WSW 1.4 mph 1.4 mph 26 % 0 in
21:32 84 °F 45.3 °F 30 in SW 2.3 mph 2.3 mph 26 % 0 in
21:37 83.8 °F 46.2 °F 30 in SW 1.2 mph 1.2 mph 27 % 0 in
21:42 83.7 °F 46 °F 30 in Calm     27 % 0 in
21:47 83.5 °F 46 °F 30 in Calm     27 % 0 in
21:52 83.3 °F 45.9 °F 30 in WSW 1.2 mph 1.2 mph 27 % 0 in
21:57 83.1 °F 46.6 °F 30 in West 1.2 mph   28 % 0 in
22:02 83.1 °F 46.6 °F 30 in Calm     28 % 0 in
22:07 82.9 °F 46.6 °F 30 in NE 2.3 mph 2.3 mph 28 % 0 in
22:12 82.8 °F 46.2 °F 30 in NE 2.3 mph 2.3 mph 28 % 0 in
22:17 82.4 °F 46 °F 30 in NE 1.4 mph 1.4 mph 28 % 0 in
22:22 82.4 °F 46 °F 30 in NE 1.2 mph 1.2 mph 28 % 0 in
22:27 82.4 °F 46 °F 30 in Calm     28 % 0 in
22:32 81.3 °F 45.1 °F 30 in SW 3.5 mph 3.5 mph 28 % 0 in
22:37 80.2 °F 45.1 °F 30 in SW 2.3 mph 2.3 mph 29 % 0 in
22:42 80.2 °F 45.1 °F 30 in SW 2.3 mph 2.3 mph 29 % 0 in
22:47 80.2 °F 46 °F 30 in SW 2.3 mph 2.3 mph 30 % 0 in
22:52 80.2 °F 46 °F 30 in SW 1.2 mph   30 % 0 in
22:57 80.2 °F 46 °F 30 in Calm     30 % 0 in
23:02 80.2 °F 46.9 °F 30 in Calm     31 % 0 in
23:07 80.2 °F 46.9 °F 30 in Calm     31 % 0 in
23:12 80.4 °F 46.9 °F 30 in West 1.4 mph 1.4 mph 31 % 0 in
23:17 80.2 °F 46.9 °F 30 in Calm     31 % 0 in
23:22 80.1 °F 46.8 °F 30 in Calm     31 % 0 in
23:28 80.1 °F 47.5 °F 30 in Calm     32 % 0 in
23:33 79.9 °F 47.5 °F 30 in West 1.2 mph   32 % 0 in
23:38 79.9 °F 47.5 °F 30 in SW 2.6 mph 2.6 mph 32 % 0 in
23:43 79.3 °F 46.9 °F 30 in SW 2.3 mph 2.3 mph 32 % 0 in
23:48 79.2 °F 46.8 °F 30 in SW 3.5 mph 3.5 mph 32 % 0 in
23:53 78.8 °F 47.3 °F 30 in SW 2.3 mph 2.3 mph 33 % 0 in
23:58 78.8 °F 47.3 °F 30 in WSW 2.3 mph 2.3 mph 33 % 0 in
Meteo Sesrovires
Elogis d' Weather Underground - 3.5 mb

Guio original per  Jim McMurry - jmcmurry@mwt.net Adaptat per a la plantilla per  Wim van der Kuil - Leuven-Template.eu

Trobareu la nostra informacio del temps tambe a:

Weather Underground

AWEKAS